Wonthaggi Composite, Victoria

7:08 AM AEDT on March 28, 2015 (GMT +1100)
Kilcunda | | Change Station
CLOSE
Current Station
Personal Weather Station
Location: Kilcunda, VICTORIA
Elevation: 65 ft
Nearby Weather Stations

Elev 65 ft 38.55 °S, 145.48 °E | Updated 3 minutes ago

Overcast
Overcast
56.0 °F
Feels Like 56.0 °F
N
3.0
Wind Variable Wind from WNW
Gusts 4.0 mph

Today
High -- | Low -- °F
--% Chance of Precip.
Yesterday
High -- | Low -- °F
Precip. -- in
7:27 AM 7:17 PM
First Quarter, 55% visible
Pressure 30.24 in
Visibility 6.2 miles
Clouds Scattered Clouds 2900 ft
Overcast 4100 ft
Dew Point 52 °F
Humidity 88%
Rainfall 0.00 in
Snow Depth Not available.
UV 0 out of 12
Pollen Not available.
Air Quality Not available.
Flu Activity Not available.
METAR YMEN 272000Z AUTO 23006KT 9999 // SCT029 OVC041 12/09 Q1024

More Conditions Fewer Conditions

Pressure 30.24 in
Visibility 6.2 miles
Clouds Scattered Clouds 2900 ft
Overcast 4100 ft
Dew Point 52 °F
Humidity 88%
Rainfall 0.00 in
Snow Depth Not available.
UV 0 out of 12
Pollen Not available.
Air Quality Not available.
Flu Activity Not available.
METAR YMEN 272000Z AUTO 23006KT 9999 // SCT029 OVC041 12/09 Q1024

More Conditions Fewer Conditions

10-Day Weather Forecast

Almanac

Astronomy

Mar. 28, 2015 Rise Set
Actual Time
Civil Twilight
Nautical Twilight
Astronomical Twilight
Moon
Length of Visible Light
Length of Day
Tomorrow will be .
, % of the Moon is Illuminated

Today's Extremes

Country Highs Country Lows

Community

WunderPhotos

Upload Photos

1,808,802 photos uploaded!

WunderBlogs® & News

Nearby

Air Quality

  Air Quality AQ Index Pollutant
Not available.

Snow Depth

Station Depth Elevation

Earthquake Activity

City Distance Mag. Time & Date
Minimum magnitude displayed is 2.5.

Coastal Water Temperatures

Place Temperature

Stations

Nearby Weather Stations

Station Location Temp. Windchill Dew Point Humidity Wind Precip. Elev Updated Type